Time;durP1;ratioP1;P1;durP2;ratioP2;P2;SDS_P1;SDS_P2;PMS_P1;PMS_P2;Temp;Humidity;BMP_temperature;BMP_pressure;BME280_temperature;BME280_humidity;BME280_pressure;Samples;Min_cycle;Max_cycle;Signal;HPM_P1;HPM_P2
2023/06/29 00:00:45;;;;;;;8.85;4.10;;;18.00;89.30;;;;;;5069097;28;20425;-76
2023/06/29 00:03:11;;;;;;;8.90;4.70;;;18.00;1.00;;;;;;5068073;28;20438;-76
2023/06/29 00:05:42;;;;;;;8.95;4.10;;;17.80;1.00;;;;;;5067645;28;20452;-77
2023/06/29 00:08:07;;;;;;;9.00;4.60;;;17.80;92.70;;;;;;5068573;28;20493;-77
2023/06/29 00:10:33;;;;;;;10.33;4.50;;;17.90;48.20;;;;;;5069344;28;20885;-76
2023/06/29 00:12:58;;;;;;;12.52;4.57;;;17.80;99.90;;;;;;5068713;28;20403;-76
2023/06/29 00:15:24;;;;;;;11.93;4.55;;;17.80;80.60;;;;;;5069002;28;20401;-76
2023/06/29 00:17:51;;;;;;;12.15;4.40;;;17.80;99.90;;;;;;5069261;28;20496;-76
2023/06/29 00:20:18;;;;;;;11.90;4.57;;;17.70;99.90;;;;;;5069964;28;20400;-77
2023/06/29 00:22:47;;;;;;;8.18;4.43;;;17.70;1.00;;;;;;5078914;28;20388;-76
2023/06/29 00:25:16;;;;;;;8.20;4.70;;;17.60;1.00;;;;;;5090727;28;20478;-76
2023/06/29 00:27:43;;;;;;;10.00;4.50;;;17.50;1.00;;;;;;5083721;28;20394;-77
2023/06/29 00:30:09;;;;;;;9.80;4.72;;;17.60;1.00;;;;;;5076290;28;20403;-77
2023/06/29 00:32:34;;;;;;;9.90;5.13;;;17.50;1.00;;;;;;5072488;28;20418;-76
2023/06/29 00:35:00;;;;;;;10.87;5.00;;;17.50;1.00;;;;;;5071067;28;20403;-76
2023/06/29 00:37:25;;;;;;;9.53;4.50;;;17.60;99.90;;;;;;5071240;28;20415;-77
2023/06/29 00:39:51;;;;;;;11.60;5.53;;;17.60;99.90;;;;;;5071169;28;20431;-76
2023/06/29 00:42:17;;;;;;;8.60;4.20;;;17.50;1.00;;;;;;5073272;28;20404;-77
2023/06/29 00:44:43;;;;;;;10.00;4.93;;;17.40;59.00;;;;;;5074191;28;20936;-77
2023/06/29 00:47:08;;;;;;;8.60;4.55;;;17.40;99.90;;;;;;5075034;28;20409;-77
2023/06/29 00:49:34;;;;;;;9.52;4.45;;;17.40;35.10;;;;;;5078340;28;20423;-77
2023/06/29 00:52:01;;;;;;;14.37;4.93;;;17.50;1.00;;;;;;5087966;28;20391;-77
2023/06/29 00:54:27;;;;;;;9.10;5.00;;;17.50;1.00;;;;;;5067555;28;20412;-77
2023/06/29 00:56:52;;;;;;;10.57;5.07;;;17.40;99.90;;;;;;5080228;28;20949;-77
2023/06/29 00:59:19;;;;;;;10.30;5.20;;;17.30;99.90;;;;;;5070750;28;20395;-76
2023/06/29 01:01:45;;;;;;;11.45;5.28;;;17.20;90.70;;;;;;5069339;28;20510;-77
2023/06/29 01:04:17;;;;;;;11.57;5.63;;;17.30;46.70;;;;;;5069159;28;20420;-77
2023/06/29 01:06:48;;;;;;;10.18;5.40;;;17.40;1.00;;;;;;5070014;28;20889;-77
2023/06/29 01:09:14;;;;;;;9.90;5.70;;;17.30;99.70;;;;;;5069845;28;20458;-77
2023/06/29 01:11:40;;;;;;;10.60;5.20;;;17.20;99.90;;;;;;5069295;28;20926;-77
2023/06/29 01:14:08;;;;;;;12.05;5.18;;;17.20;99.90;;;;;;5068708;28;20464;-77
2023/06/29 01:16:35;;;;;;;11.90;5.60;;;17.20;99.90;;;;;;5069101;28;20391;-76
2023/06/29 01:19:06;;;;;;;12.43;5.50;;;17.30;99.90;;;;;;5068005;28;20415;-76
2023/06/29 01:21:36;;;;;;;11.07;5.38;;;17.20;99.90;;;;;;5068697;28;20407;-76
2023/06/29 01:24:03;;;;;;;10.73;5.55;;;17.20;99.90;;;;;;5068751;28;20434;-76
2023/06/29 01:26:29;;;;;;;10.43;5.30;;;17.10;1.00;;;;;;5069748;28;20380;-76
2023/06/29 01:28:54;;;;;;;10.30;5.32;;;17.00;1.00;;;;;;5054764;28;20402;-76
2023/06/29 01:31:20;;;;;;;9.53;5.23;;;17.00;99.90;;;;;;5072319;28;20388;-77
2023/06/29 01:33:46;;;;;;;10.23;4.80;;;17.00;99.90;;;;;;5089149;28;20389;-77
2023/06/29 01:36:28;;;;;;;11.25;5.65;;;16.90;99.90;;;;;;5092930;28;20405;-77
2023/06/29 01:39:13;;;;;;;9.27;4.70;;;16.90;99.90;;;;;;5092630;28;20482;-77
2023/06/29 01:41:42;;;;;;;9.70;5.20;;;17.00;44.40;;;;;;5080459;28;20380;-76
2023/06/29 01:44:11;;;;;;;9.70;4.95;;;16.80;99.90;;;;;;5072854;28;20416;-76
2023/06/29 01:46:39;;;;;;;10.60;5.03;;;16.80;1.00;;;;;;5072009;28;20422;-76
2023/06/29 01:49:05;;;;;;;10.88;4.97;;;16.90;99.90;;;;;;5087018;28;20404;-77
2023/06/29 01:51:31;;;;;;;10.93;5.35;;;16.90;99.90;;;;;;5076156;28;20423;-77
2023/06/29 01:53:57;;;;;;;11.80;6.32;;;16.80;1.00;;;;;;5075055;28;20488;-75
2023/06/29 01:56:22;;;;;;;9.80;5.40;;;16.70;1.00;;;;;;5072571;28;20388;-76
2023/06/29 01:58:48;;;;;;;10.70;5.10;;;16.70;1.00;;;;;;5071921;28;22190;-76
2023/06/29 02:01:13;;;;;;;11.30;6.20;;;16.70;1.00;;;;;;5072437;28;20502;-76
2023/06/29 02:03:39;;;;;;;11.33;5.83;;;16.60;3.70;;;;;;5073247;28;20426;-76
2023/06/29 02:06:05;;;;;;;11.40;5.87;;;16.60;72.90;;;;;;5080876;28;20399;-76
2023/06/29 02:08:30;;;;;;;10.25;5.80;;;16.60;4.20;;;;;;5093830;28;20410;-76
2023/06/29 02:10:56;;;;;;;10.07;5.50;;;16.70;99.90;;;;;;5084914;28;20470;-76
2023/06/29 02:13:21;;;;;;;9.40;5.60;;;16.60;1.00;;;;;;5055389;28;20408;-76
2023/06/29 02:15:47;;;;;;;12.83;6.10;;;16.50;1.00;;;;;;5068086;28;20456;-77
2023/06/29 02:18:13;;;;;;;15.80;6.63;;;16.50;99.90;;;;;;5076772;28;20494;-77
2023/06/29 02:20:39;;;;;;;10.07;5.60;;;16.50;99.90;;;;;;5076139;28;20606;-76
2023/06/29 02:23:04;;;;;;;11.80;5.93;;;16.50;99.90;;;;;;5077858;28;20435;-75
2023/06/29 02:25:31;;;;;;;11.83;6.30;;;16.50;8.30;;;;;;5061289;28;20484;-77
2023/06/29 02:27:57;;;;;;;10.73;6.13;;;16.40;99.90;;;;;;5081817;28;20414;-77
2023/06/29 02:30:22;;;;;;;11.27;5.83;;;16.40;99.90;;;;;;5082594;28;20400;-77
2023/06/29 02:32:48;;;;;;;13.13;6.47;;;16.40;99.90;;;;;;5083380;28;20420;-78
2023/06/29 02:35:13;;;;;;;10.70;6.10;;;16.40;99.90;;;;;;5081304;28;20498;-79
2023/06/29 02:37:39;;;;;;;10.10;5.87;;;16.40;99.90;;;;;;5078538;28;20468;-79
2023/06/29 02:40:05;;;;;;;11.43;5.70;;;16.30;1.00;;;;;;5072668;28;20407;-76
2023/06/29 02:42:32;;;;;;;10.52;5.60;;;16.10;99.90;;;;;;5074539;28;20408;-75
2023/06/29 02:44:57;;;;;;;12.02;5.90;;;16.20;99.90;;;;;;5075371;28;21220;-77
2023/06/29 02:47:23;;;;;;;11.30;6.30;;;16.30;99.90;;;;;;5074483;28;20451;-78
2023/06/29 02:49:49;;;;;;;10.90;5.73;;;16.30;99.90;;;;;;5073332;28;20408;-77
2023/06/29 02:52:15;;;;;;;10.45;5.40;;;16.30;5.90;;;;;;5072102;28;20426;-77
2023/06/29 02:54:40;;;;;;;11.03;5.43;;;16.20;99.90;;;;;;5054679;28;20431;-76
2023/06/29 02:57:06;;;;;;;11.07;5.90;;;16.10;1.00;;;;;;5071392;28;20415;-76
2023/06/29 02:59:33;;;;;;;12.30;6.03;;;16.10;1.00;;;;;;5070883;28;20400;-76
2023/06/29 03:01:58;;;;;;;10.52;5.90;;;16.00;1.00;;;;;;5071500;28;20395;-76
2023/06/29 03:04:24;;;;;;;11.47;6.60;;;16.00;39.00;;;;;;5038873;28;20435;-76
2023/06/29 03:06:49;;;;;;;11.87;5.93;;;16.00;30.80;;;;;;5071101;28;20390;-76
2023/06/29 03:09:15;;;;;;;9.80;5.33;;;16.10;1.00;;;;;;5070500;28;20413;-76
2023/06/29 03:11:40;;;;;;;10.07;5.47;;;16.10;1.00;;;;;;5052584;28;20415;-76
2023/06/29 03:14:06;;;;;;;12.93;5.70;;;16.10;1.00;;;;;;5073223;28;20398;-76
2023/06/29 03:16:32;;;;;;;11.20;5.70;;;16.10;99.90;;;;;;5091435;28;20392;-76
2023/06/29 03:18:58;;;;;;;11.07;5.43;;;16.10;99.90;;;;;;5087219;28;20388;-76
2023/06/29 03:21:25;;;;;;;11.00;5.90;;;16.00;1.00;;;;;;5061674;28;20411;-77
2023/06/29 03:23:52;;;;;;;10.77;5.32;;;16.00;1.00;;;;;;5076275;28;20476;-76
2023/06/29 03:26:18;;;;;;;10.35;5.40;;;16.00;1.00;;;;;;5072872;28;20408;-76
2023/06/29 03:28:43;;;;;;;12.23;5.87;;;16.00;1.00;;;;;;5070735;28;20468;-77
2023/06/29 03:31:09;;;;;;;10.00;5.10;;;16.00;8.40;;;;;;5070159;28;20970;-77
2023/06/29 03:33:35;;;;;;;11.43;5.77;;;16.00;99.10;;;;;;5070252;28;20422;-77
2023/06/29 03:36:00;;;;;;;9.97;5.83;;;16.00;11.60;;;;;;5068396;28;20411;-77
2023/06/29 03:38:26;;;;;;;11.48;5.85;;;16.00;48.60;;;;;;5067819;28;20992;-78
2023/06/29 03:40:53;;;;;;;10.50;5.93;;;16.00;45.30;;;;;;5067601;28;20403;-76
2023/06/29 03:43:18;;;;;;;12.48;6.38;;;16.00;99.90;;;;;;5069833;28;20431;-76
2023/06/29 03:45:45;;;;;;;11.30;6.28;;;16.00;99.90;;;;;;5067824;28;20490;-77
2023/06/29 03:48:11;;;;;;;10.00;5.50;;;16.00;99.90;;;;;;5059265;28;20465;-77
2023/06/29 03:50:37;;;;;;;12.88;6.28;;;16.10;99.90;;;;;;5068352;28;20415;-76
2023/06/29 03:53:02;;;;;;;11.90;6.80;;;16.10;99.90;;;;;;5069183;28;20448;-76
2023/06/29 03:55:29;;;;;;;11.27;6.10;;;16.20;99.90;;;;;;5069990;28;20758;-76
2023/06/29 03:57:57;;;;;;;11.77;5.90;;;16.30;1.00;;;;;;5067711;28;20407;-76
2023/06/29 04:00:23;;;;;;;11.67;6.40;;;16.40;99.90;;;;;;5068091;28;20490;-76
2023/06/29 04:02:48;;;;;;;10.75;6.60;;;16.50;99.90;;;;;;5069613;28;20976;-76
2023/06/29 04:05:15;;;;;;;13.70;5.73;;;16.60;99.90;;;;;;5068689;28;20933;-76
2023/06/29 04:07:41;;;;;;;12.60;6.50;;;16.60;99.90;;;;;;5068596;28;20480;-76
2023/06/29 04:10:08;;;;;;;10.53;6.50;;;16.70;1.00;;;;;;5068626;28;20854;-76
2023/06/29 04:12:34;;;;;;;13.68;6.55;;;16.80;1.00;;;;;;5067617;28;21215;-76
2023/06/29 04:14:59;;;;;;;12.18;6.88;;;16.90;99.90;;;;;;5067499;28;20502;-75
2023/06/29 04:17:25;;;;;;;13.10;7.20;;;17.00;52.60;;;;;;5059762;28;20397;-75
2023/06/29 04:19:51;;;;;;;11.13;6.43;;;17.00;72.20;;;;;;5062931;28;20973;-75
2023/06/29 04:22:18;;;;;;;11.63;6.53;;;17.00;1.00;;;;;;5068726;28;20487;-75
2023/06/29 04:24:43;;;;;;;13.60;6.28;;;17.00;99.90;;;;;;5068695;28;20447;-75
2023/06/29 04:27:10;;;;;;;11.83;6.70;;;17.10;1.00;;;;;;5045064;28;21287;-75
2023/06/29 04:29:35;;;;;;;11.75;5.90;;;17.10;1.00;;;;;;5067948;28;20901;-75
2023/06/29 04:32:01;;;;;;;12.60;6.53;;;17.20;1.00;;;;;;5061211;28;20436;-75
2023/06/29 04:34:26;;;;;;;12.07;6.60;;;17.20;1.00;;;;;;5061024;28;20423;-75
2023/06/29 04:36:56;;;;;;;12.97;6.30;;;17.40;1.00;;;;;;5056232;28;20411;-75
2023/06/29 04:39:21;;;;;;;11.88;6.43;;;17.60;99.90;;;;;;5068573;28;20395;-75
2023/06/29 04:41:47;;;;;;;12.47;6.57;;;17.70;16.90;;;;;;5067242;28;20399;-75
2023/06/29 04:44:13;;;;;;;12.80;6.57;;;17.80;1.00;;;;;;5067125;28;20442;-76
2023/06/29 04:46:40;;;;;;;10.53;6.63;;;18.00;1.00;;;;;;5092351;28;20430;-74
2023/06/29 04:49:07;;;;;;;11.07;6.03;;;18.10;1.00;;;;;;5061606;28;20425;-77
2023/06/29 04:51:43;;;;;;;11.82;6.50;;;18.20;99.90;;;;;;5074037;28;20411;-77
2023/06/29 04:54:09;;;;;;;12.48;6.03;;;18.30;99.90;;;;;;5052468;28;20449;-77
2023/06/29 04:56:36;;;;;;;11.00;6.00;;;18.40;95.70;;;;;;5063263;28;20431;-75
2023/06/29 04:59:01;;;;;;;11.07;6.43;;;18.50;96.80;;;;;;5066488;28;20723;-74
2023/06/29 05:01:27;;;;;;;11.00;5.90;;;18.80;1.00;;;;;;5067434;28;20451;-75
2023/06/29 05:03:52;;;;;;;11.73;6.53;;;19.40;99.90;;;;;;5055809;28;20456;-75
2023/06/29 05:06:18;;;;;;;10.93;6.37;;;20.30;60.20;;;;;;5054271;28;20420;-75
2023/06/29 05:08:43;;;;;;;11.07;6.30;;;21.50;1.00;;;;;;5058112;28;20438;-76
2023/06/29 05:11:09;;;;;;;11.83;6.00;;;22.10;1.00;;;;;;5069063;28;20526;-74
2023/06/29 05:13:36;;;;;;;10.57;5.97;;;22.80;99.90;;;;;;5072046;28;20861;-75
2023/06/29 05:16:04;;;;;;;10.85;6.50;;;23.30;99.90;;;;;;5078022;28;20513;-75
2023/06/29 05:18:30;;;;;;;11.95;5.97;;;24.00;99.90;;;;;;5071197;28;20392;-71
2023/06/29 05:20:57;;;;;;;13.07;6.30;;;24.80;99.90;;;;;;5071871;28;20557;-72
2023/06/29 05:23:23;;;;;;;15.18;6.30;;;25.40;99.90;;;;;;5071324;28;20419;-71
2023/06/29 05:25:48;;;;;;;12.65;6.05;;;25.80;99.90;;;;;;5071398;28;20403;-72
2023/06/29 05:28:14;;;;;;;10.68;5.60;;;26.30;99.90;;;;;;5071378;28;20411;-72
2023/06/29 05:30:40;;;;;;;11.70;6.27;;;27.00;99.90;;;;;;5071988;28;20396;-72
2023/06/29 05:33:05;;;;;;;12.90;6.33;;;27.20;99.90;;;;;;5070830;28;20439;-72
2023/06/29 05:35:31;;;;;;;11.50;6.57;;;27.60;99.90;;;;;;5071391;28;20415;-72
2023/06/29 05:37:57;;;;;;;12.43;6.20;;;27.00;99.90;;;;;;5072054;28;20433;-73
2023/06/29 05:40:23;;;;;;;11.80;6.03;;;27.30;99.90;;;;;;5068754;28;20407;-73
2023/06/29 05:42:49;;;;;;;11.68;5.82;;;27.70;99.90;;;;;;5071030;28;20406;-74
2023/06/29 05:45:14;;;;;;;11.55;6.30;;;27.70;99.90;;;;;;5071001;28;20461;-73
2023/06/29 05:47:40;;;;;;;10.32;6.20;;;27.80;99.90;;;;;;5071067;28;20453;-72
2023/06/29 05:50:06;;;;;;;10.43;5.80;;;27.90;99.90;;;;;;5069642;28;20478;-72
2023/06/29 05:52:33;;;;;;;12.30;6.10;;;28.30;99.90;;;;;;5052050;28;20403;-72
2023/06/29 05:54:59;;;;;;;11.30;5.50;;;27.90;99.90;;;;;;5070831;28;20408;-72
2023/06/29 05:57:25;;;;;;;10.73;5.97;;;27.90;99.90;;;;;;5070655;28;20461;-72
2023/06/29 05:59:51;;;;;;;11.30;6.47;;;28.10;99.90;;;;;;5070714;28;20442;-72
2023/06/29 06:02:16;;;;;;;11.10;5.93;;;28.90;99.90;;;;;;5071140;28;20876;-73
2023/06/29 06:04:42;;;;;;;11.03;5.73;;;29.60;99.90;;;;;;5067562;28;20426;-73
2023/06/29 06:07:08;;;;;;;9.93;5.53;;;30.00;99.90;;;;;;5071210;28;20459;-73
2023/06/29 06:09:33;;;;;;;10.68;5.60;;;30.60;99.90;;;;;;5070294;28;20396;-72
2023/06/29 06:11:59;;;;;;;12.40;5.90;;;31.00;99.90;;;;;;5071001;28;20389;-73
2023/06/29 06:14:24;;;;;;;9.80;5.23;;;31.10;99.90;;;;;;5071307;28;20759;-73
2023/06/29 06:16:50;;;;;;;10.00;5.30;;;31.40;99.90;;;;;;5052954;28;20601;-72
2023/06/29 06:19:15;;;;;;;9.40;5.00;;;31.60;99.90;;;;;;5071687;28;20400;-73
2023/06/29 06:21:41;;;;;;;8.85;4.65;;;31.80;99.90;;;;;;5070879;28;20498;-72
2023/06/29 06:24:06;;;;;;;11.50;4.47;;;30.80;99.90;;;;;;5071795;28;20423;-73
2023/06/29 06:26:31;;;;;;;11.17;4.80;;;30.60;99.90;;;;;;5072077;28;20407;-73
2023/06/29 06:28:57;;;;;;;8.27;4.28;;;31.50;99.90;;;;;;5070942;28;20906;-73
2023/06/29 06:31:23;;;;;;;9.33;4.13;;;32.00;99.90;;;;;;5070800;28;20383;-73
2023/06/29 06:33:52;;;;;;;9.77;4.55;;;32.30;99.90;;;;;;5071150;28;20748;-73
2023/06/29 06:36:20;;;;;;;9.03;4.90;;;32.30;99.90;;;;;;5071089;28;20422;-73
2023/06/29 06:38:45;;;;;;;9.82;5.13;;;31.80;99.90;;;;;;5070207;28;20403;-73
2023/06/29 06:41:11;;;;;;;10.13;5.60;;;31.80;99.90;;;;;;5070042;28;20694;-73
2023/06/29 06:43:37;;;;;;;11.02;5.00;;;32.50;99.90;;;;;;5070904;28;20883;-73
2023/06/29 06:46:02;;;;;;;10.40;4.80;;;33.10;99.90;;;;;;5059164;28;20754;-73
2023/06/29 06:48:28;;;;;;;10.70;5.30;;;33.60;99.90;;;;;;5050614;28;20720;-73
2023/06/29 06:50:54;;;;;;;11.02;4.88;;;34.30;99.90;;;;;;5050229;28;20386;-73
2023/06/29 06:53:19;;;;;;;8.90;4.60;;;34.30;99.90;;;;;;5050109;28;20405;-73
2023/06/29 06:55:45;;;;;;;10.00;4.50;;;34.70;99.90;;;;;;5051537;28;20940;-72
2023/06/29 06:58:11;;;;;;;9.25;4.57;;;34.40;99.90;;;;;;5050161;28;20955;-72
2023/06/29 07:00:38;;;;;;;7.90;4.20;;;33.90;99.90;;;;;;5049682;28;20463;-72
2023/06/29 07:03:03;;;;;;;7.18;3.42;;;34.40;99.90;;;;;;5050258;28;20506;-72
2023/06/29 07:05:29;;;;;;;8.43;4.43;;;35.10;99.90;;;;;;5049723;28;20488;-73
2023/06/29 07:07:55;;;;;;;8.38;3.53;;;35.00;99.90;;;;;;5049294;28;20393;-73
2023/06/29 07:10:20;;;;;;;10.35;3.30;;;34.80;99.90;;;;;;5049478;28;20389;-72
2023/06/29 07:12:46;;;;;;;8.60;4.10;;;35.10;99.90;;;;;;5050026;28;20396;-72
2023/06/29 07:15:12;;;;;;;7.50;3.80;;;35.70;99.90;;;;;;5069524;28;20379;-72
2023/06/29 07:17:37;;;;;;;8.93;3.58;;;35.30;99.90;;;;;;5069666;28;20400;-73
2023/06/29 07:20:06;;;;;;;8.33;3.60;;;34.70;99.90;;;;;;5069727;28;20403;-73
2023/06/29 07:22:32;;;;;;;7.57;3.50;;;34.00;99.90;;;;;;5069051;28;20428;-72
2023/06/29 07:24:58;;;;;;;9.27;3.33;;;32.70;99.90;;;;;;5068109;28;20509;-72
2023/06/29 07:27:24;;;;;;;8.75;3.17;;;31.00;99.90;;;;;;5069239;28;20434;-73
2023/06/29 07:29:49;;;;;;;8.80;3.50;;;30.30;99.90;;;;;;5069641;28;20909;-72
2023/06/29 07:32:16;;;;;;;7.37;3.13;;;29.40;99.90;;;;;;5069615;28;20384;-72
2023/06/29 07:34:41;;;;;;;8.68;3.30;;;29.30;99.90;;;;;;5051463;28;20400;-72
2023/06/29 07:37:07;;;;;;;6.90;3.15;;;29.60;99.90;;;;;;5069233;28;20449;-72
2023/06/29 07:39:33;;;;;;;7.72;2.80;;;30.40;99.90;;;;;;5069474;28;20913;-72
2023/06/29 07:41:58;;;;;;;7.18;2.92;;;30.50;99.90;;;;;;5069011;28;20392;-72
2023/06/29 07:44:24;;;;;;;12.37;3.63;;;30.70;99.90;;;;;;5069010;28;20826;-72
2023/06/29 07:46:49;;;;;;;8.00;2.87;;;30.70;99.90;;;;;;5069865;28;20391;-72
2023/06/29 07:49:15;;;;;;;9.23;3.30;;;30.70;99.90;;;;;;5069557;28;20401;-72
2023/06/29 07:51:41;;;;;;;9.73;3.40;;;30.80;99.90;;;;;;5068881;28;20395;-72
2023/06/29 07:54:08;;;;;;;7.30;3.50;;;31.70;99.90;;;;;;5051839;28;20407;-72
2023/06/29 07:56:34;;;;;;;8.23;3.60;;;33.40;99.90;;;;;;5070015;28;20471;-72
2023/06/29 07:58:59;;;;;;;9.70;3.05;;;34.10;99.90;;;;;;5069888;28;20463;-72
2023/06/29 08:01:25;;;;;;;9.70;3.20;;;34.50;99.90;;;;;;5070485;28;20433;-72
2023/06/29 08:03:50;;;;;;;7.13;3.27;;;33.90;99.90;;;;;;5071222;28;20848;-72
2023/06/29 08:06:16;;;;;;;7.93;3.00;;;33.00;99.90;;;;;;5071158;28;20728;-72
2023/06/29 08:08:42;;;;;;;8.30;3.25;;;32.50;99.90;;;;;;5069694;28;20461;-72
2023/06/29 08:11:12;;;;;;;6.68;2.40;;;33.30;99.90;;;;;;5069410;28;20740;-72
2023/06/29 08:13:38;;;;;;;9.23;3.60;;;34.00;99.90;;;;;;5069215;28;20401;-72
2023/06/29 08:16:03;;;;;;;6.80;2.90;;;34.30;99.90;;;;;;5069541;28;20862;-72
2023/06/29 08:18:30;;;;;;;7.70;2.57;;;35.10;99.90;;;;;;5068900;28;20383;-72
2023/06/29 08:20:55;;;;;;;8.55;2.70;;;35.90;99.90;;;;;;5068861;28;20437;-73
2023/06/29 08:23:21;;;;;;;6.90;2.93;;;35.70;99.90;;;;;;5068703;28;20416;-72
2023/06/29 08:25:47;;;;;;;9.50;3.20;;;35.40;99.90;;;;;;5069201;28;20470;-72
2023/06/29 08:28:12;;;;;;;6.90;2.97;;;35.30;99.90;;;;;;5069312;28;20961;-72
2023/06/29 08:30:38;;;;;;;10.67;3.50;;;34.80;99.90;;;;;;5069990;28;20896;-72
2023/06/29 08:33:03;;;;;;;8.93;3.00;;;34.60;99.90;;;;;;5069060;28;20891;-72
2023/06/29 08:35:29;;;;;;;8.00;3.17;;;34.30;99.90;;;;;;5069491;28;20399;-73
2023/06/29 08:37:54;;;;;;;9.17;3.00;;;33.90;99.90;;;;;;5072460;28;20435;-72
2023/06/29 08:40:22;;;;;;;6.15;2.60;;;33.20;99.90;;;;;;5072651;28;20478;-72
2023/06/29 08:42:48;;;;;;;7.53;2.85;;;32.50;99.90;;;;;;5072651;28;20471;-73
2023/06/29 08:45:14;;;;;;;6.85;3.30;;;31.70;99.90;;;;;;5072740;28;20483;-73
2023/06/29 08:47:41;;;;;;;9.60;3.63;;;31.70;99.90;;;;;;5071898;28;20506;-73
2023/06/29 08:50:09;;;;;;;8.10;2.53;;;32.30;99.90;;;;;;5072434;28;20391;-72
2023/06/29 08:52:35;;;;;;;6.30;2.50;;;33.40;99.90;;;;;;5072843;28;20761;-73
2023/06/29 08:55:03;;;;;;;7.47;2.63;;;33.70;99.90;;;;;;5072766;28;20502;-73
2023/06/29 08:57:32;;;;;;;7.50;2.80;;;33.80;99.90;;;;;;5071534;28;20387;-73
2023/06/29 08:59:59;;;;;;;6.90;2.90;;;34.10;99.90;;;;;;5054232;28;20388;-72
2023/06/29 09:02:27;;;;;;;9.45;2.95;;;34.80;99.90;;;;;;5072068;28;20876;-72
2023/06/29 09:04:53;;;;;;;8.93;3.20;;;35.00;99.90;;;;;;5071581;28;20411;-72
2023/06/29 09:07:18;;;;;;;7.28;3.20;;;34.60;99.90;;;;;;5054094;28;20406;-72
2023/06/29 09:09:44;;;;;;;8.83;3.40;;;34.70;99.90;;;;;;5071473;28;20428;-72
2023/06/29 09:12:10;;;;;;;8.13;2.92;;;34.60;99.90;;;;;;5071971;28;20464;-72
2023/06/29 09:14:46;;;;;;;6.97;3.10;;;34.70;99.90;;;;;;5071940;28;20433;-72
2023/06/29 09:17:16;;;;;;;8.10;3.53;;;34.80;99.90;;;;;;5071373;28;20398;-72
2023/06/29 09:19:55;;;;;;;7.40;3.10;;;34.60;99.90;;;;;;5071662;28;20387;-72
2023/06/29 09:22:21;;;;;;;8.45;3.13;;;34.80;99.90;;;;;;5074578;28;20395;-71
2023/06/29 09:24:48;;;;;;;9.07;3.67;;;34.60;99.90;;;;;;5073864;28;20414;-72
2023/06/29 09:27:13;;;;;;;6.90;3.00;;;34.80;99.90;;;;;;5054552;28;20904;-72
2023/06/29 09:29:39;;;;;;;10.05;3.30;;;34.10;99.90;;;;;;5071958;28;20392;-72
2023/06/29 09:32:12;;;;;;;8.30;3.47;;;34.00;99.90;;;;;;5071603;28;20395;-72
2023/06/29 09:34:47;;;;;;;8.52;3.40;;;33.90;99.90;;;;;;5071768;28;20934;-72
2023/06/29 09:37:15;;;;;;;7.70;2.90;;;;;;;;;;5053769;28;20544;-72
2023/06/29 09:39:59;;;;;;;6.75;2.80;;;33.30;99.90;;;;;;5071034;28;20439;-73
2023/06/29 09:42:26;;;;;;;8.10;2.70;;;34.70;99.90;;;;;;5071172;28;20471;-72
2023/06/29 09:44:52;;;;;;;8.50;2.60;;;35.50;99.90;;;;;;5071554;28;20426;-72
2023/06/29 09:47:19;;;;;;;8.10;3.10;;;35.30;99.90;;;;;;5070362;28;20403;-73
2023/06/29 09:49:47;;;;;;;7.87;2.90;;;34.50;99.90;;;;;;5071170;28;20387;-72
2023/06/29 09:52:14;;;;;;;7.60;2.90;;;34.00;99.90;;;;;;5071198;28;20453;-72
2023/06/29 09:54:39;;;;;;;6.80;2.70;;;33.90;99.90;;;;;;5071075;28;20614;-73
2023/06/29 09:57:07;;;;;;;7.50;2.73;;;33.60;99.90;;;;;;5071453;28;20387;-72
2023/06/29 09:59:39;;;;;;;8.65;3.10;;;33.20;99.90;;;;;;5070838;28;20875;-72
2023/06/29 10:02:04;;;;;;;8.73;2.85;;;33.30;99.90;;;;;;5071156;28;20864;-72
2023/06/29 10:04:31;;;;;;;8.05;2.50;;;33.20;99.90;;;;;;5071035;28;20553;-72
2023/06/29 10:07:15;;;;;;;7.07;2.75;;;33.30;99.90;;;;;;5071173;28;20467;-72
2023/06/29 10:09:45;;;;;;;8.68;3.58;;;32.70;99.90;;;;;;5071265;28;20400;-72
2023/06/29 10:12:12;;;;;;;8.40;3.17;;;32.30;99.90;;;;;;5053309;28;20408;-72
2023/06/29 10:14:45;;;;;;;8.00;2.72;;;33.10;99.90;;;;;;5071028;28;20399;-72
2023/06/29 10:17:22;;;;;;;7.78;2.90;;;33.10;99.90;;;;;;5070522;28;20691;-72
2023/06/29 10:19:49;;;;;;;8.23;2.97;;;33.10;99.90;;;;;;5071588;28;20747;-72
2023/06/29 10:22:16;;;;;;;7.77;2.40;;;33.00;99.90;;;;;;5071285;28;20399;-72
2023/06/29 10:24:48;;;;;;;7.97;2.70;;;33.10;99.90;;;;;;5070412;28;20408;-72
2023/06/29 10:27:15;;;;;;;7.82;2.97;;;34.10;99.90;;;;;;5070540;28;20415;-72
2023/06/29 10:29:48;;;;;;;7.75;2.83;;;35.10;99.90;;;;;;5070167;28;20388;-73
2023/06/29 10:32:36;;;;;;;6.50;2.70;;;35.70;99.90;;;;;;5070422;28;20466;-73
2023/06/29 10:35:03;;;;;;;9.40;3.03;;;35.80;99.90;;;;;;5070194;28;20423;-72
2023/06/29 10:37:45;;;;;;;7.70;2.93;;;35.30;99.90;;;;;;5070373;28;20831;-72
2023/06/29 10:40:18;;;;;;;9.70;2.70;;;33.70;99.90;;;;;;5070185;28;20830;-72
2023/06/29 10:42:43;;;;;;;8.33;3.17;;;33.50;99.90;;;;;;5070906;28;20729;-72
2023/06/29 10:45:12;;;;;;;8.27;3.07;;;33.60;99.90;;;;;;5072829;28;20411;-72
2023/06/29 10:47:39;;;;;;;7.57;3.30;;;33.80;99.90;;;;;;5070401;28;20380;-72
2023/06/29 10:50:11;;;;;;;8.07;3.25;;;34.00;99.90;;;;;;5070454;28;20384;-72
2023/06/29 10:52:42;;;;;;;8.80;3.00;;;34.20;99.90;;;;;;5070175;28;20403;-73
2023/06/29 10:55:22;;;;;;;7.97;3.10;;;33.70;99.90;;;;;;5069495;28;20505;-72
2023/06/29 10:57:51;;;;;;;7.72;3.08;;;34.00;99.90;;;;;;5069900;28;20391;-73
2023/06/29 11:00:17;;;;;;;7.07;3.20;;;33.80;99.90;;;;;;5069715;28;20408;-72
2023/06/29 11:02:44;;;;;;;7.75;2.83;;;33.00;99.90;;;;;;5069913;28;20395;-72
2023/06/29 11:05:14;;;;;;;7.20;2.50;;;32.60;99.90;;;;;;5069500;28;20445;-72
2023/06/29 11:07:43;;;;;;;7.00;2.60;;;32.60;99.90;;;;;;5069711;28;20372;-72
2023/06/29 11:10:10;;;;;;;7.20;3.38;;;33.10;99.90;;;;;;5069457;28;20403;-72
2023/06/29 11:12:39;;;;;;;7.50;3.10;;;33.20;99.90;;;;;;5069151;28;20387;-72
2023/06/29 11:15:13;;;;;;;7.70;2.97;;;32.90;99.90;;;;;;5067337;28;20407;-72
2023/06/29 11:17:39;;;;;;;8.63;3.05;;;33.30;99.90;;;;;;5066643;28;20391;-72
2023/06/29 11:20:06;;;;;;;9.00;3.08;;;33.40;99.90;;;;;;5070319;28;20395;-71
2023/06/29 11:22:33;;;;;;;8.30;3.20;;;33.20;99.90;;;;;;5064629;28;20445;-71
2023/06/29 11:24:58;;;;;;;7.03;3.30;;;32.90;99.90;;;;;;5067891;28;20477;-70
2023/06/29 11:27:24;;;;;;;7.90;3.30;;;32.70;99.90;;;;;;5068319;28;20388;-71
2023/06/29 11:29:56;;;;;;;7.37;2.90;;;33.10;99.90;;;;;;5069132;28;20741;-71
2023/06/29 11:32:23;;;;;;;9.43;3.40;;;33.20;99.90;;;;;;5065635;28;20469;-71
2023/06/29 11:35:00;;;;;;;8.30;3.10;;;33.70;99.90;;;;;;5069110;28;20799;-71
2023/06/29 11:37:26;;;;;;;7.00;3.13;;;34.00;99.90;;;;;;5069170;28;20403;-71
2023/06/29 11:39:51;;;;;;;9.38;3.35;;;34.00;99.90;;;;;;5068585;28;20491;-71
2023/06/29 11:42:19;;;;;;;7.20;2.87;;;33.30;99.90;;;;;;5068474;28;20491;-72
2023/06/29 11:44:45;;;;;;;8.70;3.10;;;33.20;99.90;;;;;;5069509;28;20414;-72
2023/06/29 11:47:13;;;;;;;8.13;3.20;;;33.30;99.90;;;;;;5068910;28;20398;-71
2023/06/29 11:49:38;;;;;;;9.25;3.60;;;33.10;99.90;;;;;;5066992;28;20423;-72
2023/06/29 11:52:06;;;;;;;9.70;2.83;;;33.00;99.90;;;;;;5067749;28;20920;-71
2023/06/29 11:54:32;;;;;;;7.72;3.30;;;33.10;99.90;;;;;;5068352;28;20907;-72
2023/06/29 11:56:58;;;;;;;9.23;3.60;;;32.90;99.90;;;;;;5068599;28;21000;-72
2023/06/29 11:59:24;;;;;;;7.10;3.30;;;32.40;99.90;;;;;;5068438;28;20391;-71
2023/06/29 12:01:50;;;;;;;7.17;3.10;;;32.50;99.90;;;;;;5068885;28;20380;-72
2023/06/29 12:04:16;;;;;;;7.93;3.40;;;32.30;99.90;;;;;;5071451;28;20416;-70
2023/06/29 12:06:56;;;;;;;9.00;3.20;;;32.00;99.90;;;;;;5072433;28;20400;-71
2023/06/29 12:09:29;;;;;;;11.40;3.80;;;31.40;99.90;;;;;;5069763;28;20404;-71
2023/06/29 12:11:56;;;;;;;7.55;3.40;;;31.00;99.90;;;;;;5068277;28;20411;-71
2023/06/29 12:14:24;;;;;;;7.90;3.60;;;30.70;99.90;;;;;;5049883;28;20421;-71
2023/06/29 12:16:51;;;;;;;9.95;3.70;;;30.70;99.90;;;;;;5068359;28;20396;-71
2023/06/29 12:19:17;;;;;;;8.17;3.57;;;30.40;99.90;;;;;;5069118;28;20482;-71
2023/06/29 12:21:42;;;;;;;9.20;4.00;;;30.10;99.90;;;;;;5068564;28;20487;-71
2023/06/29 12:24:08;;;;;;;12.00;4.23;;;29.70;99.90;;;;;;5068689;28;20904;-71
2023/06/29 12:26:33;;;;;;;10.15;5.53;;;29.80;99.90;;;;;;5068465;28;20407;-71
2023/06/29 12:28:59;;;;;;;6.95;3.33;;;29.70;99.90;;;;;;5068222;28;20475;-71
2023/06/29 12:31:28;;;;;;;8.57;3.78;;;29.70;99.90;;;;;;5068570;28;20779;-71
2023/06/29 12:33:55;;;;;;;8.20;3.20;;;30.00;99.90;;;;;;5072034;28;20392;-72
2023/06/29 12:36:21;;;;;;;9.48;3.65;;;30.10;99.90;;;;;;5070086;28;20379;-72
2023/06/29 12:38:50;;;;;;;8.40;3.10;;;30.60;99.90;;;;;;5070007;28;20474;-73
2023/06/29 12:41:16;;;;;;;7.40;3.40;;;30.90;99.90;;;;;;5068861;28;20414;-72